Time;durP1;ratioP1;P1;durP2;ratioP2;P2;SDS_P1;SDS_P2;PMS_P1;PMS_P2;Temp;Humidity;BMP_temperature;BMP_pressure;BME280_temperature;BME280_humidity;BME280_pressure;Samples;Min_cycle;Max_cycle;Signal;HPM_P1;HPM_P2
2022/06/23 00:01:57;;;;;;;;;;;20.50;99.90;;;;;;5032041;28;19925;-67
2022/06/23 00:04:26;;;;;;;;;;;20.60;99.90;;;;;;5048604;28;19925;-67
2022/06/23 00:06:53;;;;;;;;;;;20.60;99.90;;;;;;5031459;28;19996;-67
2022/06/23 00:09:33;;;;;;;;;;;20.60;99.90;;;;;;5032021;28;19925;-67
2022/06/23 00:12:00;;;;;;;;;;;20.60;99.90;;;;;;5032208;28;19929;-66
2022/06/23 00:14:28;;;;;;;;;;;20.50;99.90;;;;;;5031645;28;19929;-67
2022/06/23 00:16:55;;;;;;;;;;;20.60;99.90;;;;;;5031858;28;19930;-67
2022/06/23 00:19:21;;;;;;;;;;;20.60;99.90;;;;;;5031627;28;19941;-67
2022/06/23 00:21:51;;;;;;;;;;;20.70;99.90;;;;;;5031868;28;19987;-67
2022/06/23 00:24:20;;;;;;;;;;;20.70;99.90;;;;;;5031301;28;20347;-67
2022/06/23 00:26:47;;;;;;;;;;;20.70;99.90;;;;;;5031689;28;19933;-67
2022/06/23 00:29:15;;;;;;;;;;;20.70;99.90;;;;;;5031315;28;20339;-66
2022/06/23 00:31:43;;;;;;;;;;;20.60;99.90;;;;;;5031551;28;19936;-67
2022/06/23 00:34:15;;;;;;;;;;;20.50;99.90;;;;;;5031645;28;19925;-66
2022/06/23 00:36:47;;;;;;;;;;;20.40;99.90;;;;;;5032104;28;19925;-66
2022/06/23 00:39:22;;;;;;;;;;;20.20;99.90;;;;;;5032038;28;20450;-66
2022/06/23 00:41:49;;;;;;;;;;;20.00;99.90;;;;;;5031415;28;20290;-67
2022/06/23 00:44:16;;;;;;;;;;;;;;;;;;5031864;28;19944;-66
2022/06/23 00:46:45;;;;;;;;;;;19.70;99.90;;;;;;5032024;28;19925;-67
2022/06/23 00:49:16;;;;;;;;;;;19.60;99.90;;;;;;5031756;28;19932;-67
2022/06/23 00:51:44;;;;;;;;;;;19.40;99.90;;;;;;5031958;28;19979;-66
2022/06/23 00:54:15;;;;;;;;;;;19.20;99.90;;;;;;5031553;28;19925;-66
2022/06/23 00:56:47;;;;;;;;;;;19.10;99.90;;;;;;5031674;28;19933;-66
2022/06/23 00:59:16;;;;;;;;;;;19.20;99.90;;;;;;5031531;28;19983;-66
2022/06/23 01:01:46;;;;;;;;;;;19.20;99.90;;;;;;5031966;28;19925;-66
2022/06/23 01:04:18;;;;;;;;;;;19.20;99.90;;;;;;5031526;28;19925;-66
2022/06/23 01:06:49;;;;;;;;;;;19.20;99.90;;;;;;5031596;28;19925;-66
2022/06/23 01:09:21;;;;;;;;;;;19.10;99.90;;;;;;5031285;28;19929;-67
2022/06/23 01:11:53;;;;;;;;;;;19.10;99.90;;;;;;5031885;28;19972;-66
2022/06/23 01:14:25;;;;;;;;;;;19.10;99.90;;;;;;5031050;28;20351;-66
2022/06/23 01:16:53;;;;;;;;;;;19.10;99.90;;;;;;5031362;28;20383;-66
2022/06/23 01:19:54;;;;;;;;;;;19.00;99.90;;;;;;5031197;28;19932;-66
2022/06/23 01:22:25;;;;;;;;;;;18.80;99.90;;;;;;5031788;28;19932;-66
2022/06/23 01:24:57;;;;;;;;;;;18.70;99.90;;;;;;5031053;28;20471;-67
2022/06/23 01:27:31;;;;;;;;;;;18.60;99.90;;;;;;5031515;28;19933;-67
2022/06/23 01:30:04;;;;;;;;;;;18.60;99.90;;;;;;5030543;28;19925;-66
2022/06/23 01:32:33;;;;;;;;;;;18.60;99.90;;;;;;5031239;28;20385;-66
2022/06/23 01:35:06;;;;;;;;;;;18.50;99.90;;;;;;5031127;28;20446;-67
2022/06/23 01:37:35;;;;;;;;;;;18.50;99.90;;;;;;5031330;28;20351;-67
2022/06/23 01:40:05;;;;;;;;;;;18.50;99.90;;;;;;5030922;28;19925;-65
2022/06/23 01:42:35;;;;;;;;;;;18.50;99.90;;;;;;5032387;28;19972;-66
2022/06/23 01:45:04;;;;;;;;;;;18.50;99.90;;;;;;5030476;28;20380;-66
2022/06/23 01:47:34;;;;;;;;;;;18.50;99.90;;;;;;5047590;28;20409;-66
2022/06/23 01:50:19;;;;;;;;;;;18.40;99.90;;;;;;5030478;28;21045;-66
2022/06/23 01:52:47;;;;;;;;;;;18.50;99.90;;;;;;5047550;28;19929;-66
2022/06/23 01:55:16;;;;;;;;;;;18.50;99.90;;;;;;5047281;28;20024;-66
2022/06/23 01:57:44;;;;;;;;;;;18.50;99.90;;;;;;5030890;28;20352;-66
2022/06/23 02:00:14;;;;;;;;;;;18.50;99.90;;;;;;5031090;28;19932;-66
2022/06/23 02:02:48;;;;;;;;;;;18.50;99.90;;;;;;5031053;28;19925;-66
2022/06/23 02:05:21;;;;;;;;;;;18.40;99.90;;;;;;5030741;28;19979;-66
2022/06/23 02:07:52;;;;;;;;;;;18.30;99.90;;;;;;5031166;28;19987;-67
2022/06/23 02:10:22;;;;;;;;;;;18.30;99.90;;;;;;5030848;28;19925;-66
2022/06/23 02:12:52;;;;;;;;;;;18.40;99.90;;;;;;5030917;28;19925;-66
2022/06/23 02:15:23;;;;;;;;;;;18.40;99.90;;;;;;5030255;28;19951;-66
2022/06/23 02:17:54;;;;;;;;;;;18.50;99.90;;;;;;5047234;28;20361;-66
2022/06/23 02:20:37;;;;;;;;;;;18.50;99.90;;;;;;5030444;28;19925;-66
2022/06/23 02:23:13;;;;;;;;;;;18.10;99.90;;;;;;5030582;28;19932;-66
2022/06/23 02:25:45;;;;;;;;;;;18.00;99.90;;;;;;5030276;28;19929;-66
2022/06/23 02:28:15;;;;;;;;;;;18.00;99.90;;;;;;5030964;28;19925;-66
2022/06/23 02:30:45;;;;;;;;;;;18.10;99.90;;;;;;5032425;28;19925;-66
2022/06/23 02:33:17;;;;;;;;;;;18.00;99.90;;;;;;5034566;28;19945;-66
2022/06/23 02:35:46;;;;;;;;;;;17.90;99.90;;;;;;5034199;28;19925;-66
2022/06/23 02:38:18;;;;;;;;;;;17.90;99.90;;;;;;5034452;28;20420;-66
2022/06/23 02:40:47;;;;;;;;;;;17.80;99.90;;;;;;5034202;28;19955;-67
2022/06/23 02:43:18;;;;;;;;;;;17.80;99.90;;;;;;5034703;28;19964;-66
2022/06/23 02:45:58;;;;;;;;;;;17.80;99.90;;;;;;5034089;28;19982;-66
2022/06/23 02:48:32;;;;;;;;;;;17.90;99.90;;;;;;5034543;28;19929;-66
2022/06/23 02:51:05;;;;;;;;;;;17.90;99.90;;;;;;5034230;28;19931;-66
2022/06/23 02:53:44;;;;;;;;;;;17.90;99.90;;;;;;5033913;28;19975;-65
2022/06/23 02:56:22;;;;;;;;;;;17.90;99.90;;;;;;5034018;28;19962;-66
2022/06/23 02:58:50;;;;;;;;;;;17.80;99.90;;;;;;5034167;28;19925;-66
2022/06/23 03:01:21;;;;;;;;;;;17.80;99.90;;;;;;5033970;28;19975;-67
2022/06/23 03:03:52;;;;;;;;;;;17.80;99.90;;;;;;5034003;28;19932;-66
2022/06/23 03:06:21;;;;;;;;;;;17.70;99.90;;;;;;5034130;28;19975;-66
2022/06/23 03:08:51;;;;;;;;;;;17.70;99.90;;;;;;5033619;28;20428;-67
2022/06/23 03:11:51;;;;;;;;;;;17.70;99.90;;;;;;5034029;28;20458;-66
2022/06/23 03:14:09;;;;;;;;;;;17.80;99.90;;;;;;5033280;28;19964;-66
2022/06/23 03:16:42;;;;;;;;;;;17.90;99.90;;;;;;5033876;28;19933;-66
2022/06/23 03:19:10;;;;;;;;;;;17.90;99.90;;;;;;5033527;28;19949;-67
2022/06/23 03:21:42;;;;;;;;;;;18.00;99.90;;;;;;5033634;28;19925;-66
2022/06/23 03:24:12;;;;;;;;;;;18.00;99.90;;;;;;5034559;28;19925;-66
2022/06/23 03:26:42;;;;;;;;;;;18.00;99.90;;;;;;5033533;28;19925;-66
2022/06/23 03:29:15;;;;;;;;;;;18.10;99.90;;;;;;5050289;28;19925;-66
2022/06/23 03:31:46;;;;;;;;;;;18.10;99.90;;;;;;5033590;28;19932;-67
2022/06/23 03:34:16;;;;;;;;;;;18.20;99.90;;;;;;5033114;28;19925;-66
2022/06/23 03:36:45;;;;;;;;;;;18.20;99.90;;;;;;5033458;28;20356;-67
2022/06/23 03:42:05;;;;;;;;;;;18.20;99.90;;;;;;5032374;28;20277;-66
2022/06/23 03:47:04;;;;;;;;;;;18.30;99.90;;;;;;5051440;28;19925;-66
2022/06/23 03:49:37;;;;;;;;;;;18.00;99.90;;;;;;5068008;28;19925;-65
2022/06/23 03:52:05;;;;;;;;;;;18.00;99.90;;;;;;5052221;28;19925;-66
2022/06/23 03:54:34;;;;;;;;;;;18.00;99.90;;;;;;5052195;28;19924;-66
2022/06/23 03:57:05;;;;;;;;;;;18.00;99.90;;;;;;5068875;28;19925;-65
2022/06/23 03:59:36;;;;;;;;;;;18.00;99.90;;;;;;5068923;28;19956;-66
2022/06/23 04:02:11;;;;;;;;;;;18.20;99.90;;;;;;5068589;28;19978;-65
2022/06/23 04:04:45;;;;;;;;;;;18.30;99.90;;;;;;5068436;28;20454;-66
2022/06/23 04:07:26;;;;;;;;;;;18.20;99.90;;;;;;5068589;28;19929;-66
2022/06/23 04:09:53;;;;;;;;;;;18.30;99.90;;;;;;5048323;28;19982;-66
2022/06/23 04:12:20;;;;;;;;;;;18.20;99.90;;;;;;5068776;28;19925;-67
2022/06/23 04:14:50;;;;;;;;;;;18.20;99.90;;;;;;5068340;28;19925;-67
2022/06/23 04:17:21;;;;;;;;;;;18.20;99.90;;;;;;5068590;28;19925;-66
2022/06/23 04:19:49;;;;;;;;;;;18.30;99.90;;;;;;5067532;28;20013;-66
2022/06/23 04:22:19;;;;;;;;;;;18.40;99.90;;;;;;5050967;28;19925;-66
2022/06/23 04:24:47;;;;;;;;;;;18.50;99.90;;;;;;5050986;28;20367;-66
2022/06/23 04:27:17;;;;;;;;;;;18.60;99.90;;;;;;5051245;28;19929;-66
2022/06/23 04:29:44;;;;;;;;;;;18.70;99.90;;;;;;5050870;28;19925;-66
2022/06/23 04:32:13;;;;;;;;;;;18.90;99.90;;;;;;5051425;28;19924;-67
2022/06/23 04:34:47;;;;;;;;;;;19.10;99.90;;;;;;5051100;28;19985;-66
2022/06/23 04:37:21;;;;;;;;;;;19.20;99.90;;;;;;5051220;28;20047;-67
2022/06/23 04:39:59;;;;;;;;;;;19.20;99.90;;;;;;5051179;28;19924;-67
2022/06/23 04:42:27;;;;;;;;;;;19.30;99.90;;;;;;5051493;28;19947;-66
2022/06/23 04:44:56;;;;;;;;;;;19.40;99.90;;;;;;5051021;28;19928;-66
2022/06/23 04:47:24;;;;;;;;;;;19.50;99.90;;;;;;5050951;28;20277;-66
2022/06/23 04:49:54;;;;;;;;;;;19.50;99.90;;;;;;5051014;28;19928;-66
2022/06/23 04:52:24;;;;;;;;;;;19.50;99.90;;;;;;5051576;28;20370;-66
2022/06/23 04:54:54;;;;;;;;;;;19.60;99.90;;;;;;5051536;28;20346;-66
2022/06/23 04:57:22;;;;;;;;;;;19.60;99.90;;;;;;5050447;28;19925;-66
2022/06/23 04:59:50;;;;;;;;;;;19.70;99.90;;;;;;5050326;28;19928;-67
2022/06/23 05:02:19;;;;;;;;;;;19.70;99.90;;;;;;5044223;28;19935;-66
2022/06/23 05:04:51;;;;;;;;;;;19.80;99.90;;;;;;5032374;28;19964;-66
2022/06/23 05:07:22;;;;;;;;;;;19.90;99.90;;;;;;5040209;28;19925;-66
2022/06/23 05:09:49;;;;;;;;;;;20.00;99.90;;;;;;5050261;28;19925;-66
2022/06/23 05:12:19;;;;;;;;;;;20.10;99.90;;;;;;5034943;28;19959;-66
2022/06/23 05:14:51;;;;;;;;;;;20.10;99.90;;;;;;5030457;28;19980;-67
2022/06/23 05:17:19;;;;;;;;;;;20.20;99.90;;;;;;5030873;28;20385;-66
2022/06/23 05:19:47;;;;;;;;;;;20.30;99.90;;;;;;5037686;28;19929;-66
2022/06/23 05:22:19;;;;;;;;;;;20.50;99.90;;;;;;5050671;28;19978;-66
2022/06/23 05:24:48;;;;;;;;;;;20.60;99.90;;;;;;5050204;28;19929;-66
2022/06/23 05:27:18;;;;;;;;;;;20.70;99.90;;;;;;5050295;28;19933;-66
2022/06/23 05:29:49;;;;;;;;;;;20.70;99.90;;;;;;5050311;28;19931;-67
2022/06/23 05:32:18;;;;;;;;;;;20.80;99.90;;;;;;5050429;28;19929;-66
2022/06/23 05:34:48;;;;;;;;;;;20.90;99.90;;;;;;5049825;28;19925;-67
2022/06/23 05:37:18;;;;;;;;;;;21.00;99.90;;;;;;5044311;28;19924;-66
2022/06/23 05:39:47;;;;;;;;;;;21.00;99.90;;;;;;5039918;28;20297;-66
2022/06/23 05:42:18;;;;;;;;;;;21.10;99.90;;;;;;5041064;28;19924;-66
2022/06/23 05:44:50;;;;;;;;;;;21.10;99.90;;;;;;5040076;28;19932;-64
2022/06/23 05:47:18;;;;;;;;;;;21.20;99.90;;;;;;5047893;28;19928;-66
2022/06/23 05:49:47;;;;;;;;;;;21.20;99.90;;;;;;5049267;28;19982;-65
2022/06/23 05:52:16;;;;;;;;;;;21.30;99.90;;;;;;5050163;28;19955;-66
2022/06/23 05:54:45;;;;;;;;;;;21.40;99.90;;;;;;5049933;28;19986;-66
2022/06/23 05:57:16;;;;;;;;;;;21.50;99.90;;;;;;5050224;28;20380;-66
2022/06/23 05:59:55;;;;;;;;;;;21.50;99.90;;;;;;5049797;28;19925;-66
2022/06/23 06:02:25;;;;;;;;;;;21.60;99.90;;;;;;5050053;28;19925;-66
2022/06/23 06:04:53;;;;;;;;;;;21.70;99.90;;;;;;5048943;28;20331;-65
2022/06/23 06:07:26;;;;;;;;;;;21.80;99.90;;;;;;5050107;28;19924;-66
2022/06/23 06:09:54;;;;;;;;;;;21.90;99.90;;;;;;5049667;28;20415;-65
2022/06/23 06:12:23;;;;;;;;;;;22.00;99.90;;;;;;5049963;28;19924;-65
2022/06/23 06:14:57;;;;;;;;;;;22.00;99.90;;;;;;5049481;28;19928;-65
2022/06/23 06:17:25;;;;;;;;;;;22.00;99.90;;;;;;5083403;28;19925;-66
2022/06/23 06:19:53;;;;;;;;;;;22.10;99.90;;;;;;5083679;28;20308;-65
2022/06/23 06:22:44;;;;;;;;;;;22.20;99.90;;;;;;5083425;28;19978;-66
2022/06/23 06:25:17;;;;;;;;;;;22.40;99.90;;;;;;5034294;28;19929;-66
2022/06/23 06:27:44;;;;;;;;;;;22.40;99.90;;;;;;5083800;28;19948;-66
2022/06/23 06:30:15;;;;;;;;;;;22.40;99.90;;;;;;5049897;28;19975;-65
2022/06/23 06:32:42;;;;;;;;;;;22.40;99.90;;;;;;5083495;28;19929;-66
2022/06/23 06:35:16;;;;;;;;;;;22.50;99.90;;;;;;5082908;28;19925;-65
2022/06/23 06:37:44;;;;;;;;;;;22.60;99.90;;;;;;5083206;28;19982;-66
2022/06/23 06:40:12;;;;;;;;;;;22.70;99.90;;;;;;5049353;28;19974;-66
2022/06/23 06:42:42;;;;;;;;;;;22.80;99.90;;;;;;5083293;28;19925;-65
2022/06/23 06:45:12;;;;;;;;;;;22.90;99.90;;;;;;5082573;28;19925;-66
2022/06/23 06:47:41;;;;;;;;;;;23.00;99.90;;;;;;5083251;28;20351;-66
2022/06/23 06:50:17;;;;;;;;;;;23.10;99.90;;;;;;5082868;28;19982;-65
2022/06/23 06:52:44;;;;;;;;;;;23.20;99.90;;;;;;5049547;28;19932;-66
2022/06/23 06:55:14;;;;;;;;;;;23.30;99.90;;;;;;5049185;28;19986;-66
2022/06/23 06:57:44;;;;;;;;;;;23.40;99.90;;;;;;5083137;28;19932;-66
2022/06/23 07:00:14;;;;;;;;;;;23.50;99.90;;;;;;5082680;28;19924;-66
2022/06/23 07:02:45;;;;;;;;;;;23.70;99.90;;;;;;5082981;28;19986;-66
2022/06/23 07:05:18;;;;;;;;;;;23.70;99.90;;;;;;5082536;28;19925;-66
2022/06/23 07:07:47;;;;;;;;;;;23.80;99.90;;;;;;5082974;28;19983;-66
2022/06/23 07:10:18;;;;;;;;;;;23.90;99.90;;;;;;5081253;28;19925;-66
2022/06/23 07:12:48;;;;;;;;;;;24.00;99.90;;;;;;5029466;28;19926;-66
2022/06/23 07:15:19;;;;;;;;;;;24.10;99.90;;;;;;5029392;28;19951;-66
2022/06/23 07:17:51;;;;;;;;;;;24.20;99.90;;;;;;5032453;28;20409;-66
2022/06/23 07:20:20;;;;;;;;;;;24.20;99.90;;;;;;5032844;28;19925;-64
2022/06/23 07:22:48;;;;;;;;;;;24.30;99.90;;;;;;5032757;28;19925;-65
2022/06/23 07:25:18;;;;;;;;;;;24.40;99.90;;;;;;5032572;28;19925;-65
2022/06/23 07:27:47;;;;;;;;;;;24.50;99.90;;;;;;5032779;28;20351;-65
2022/06/23 07:30:15;;;;;;;;;;;24.50;99.90;;;;;;5032396;28;19931;-65
2022/06/23 07:32:45;;;;;;;;;;;24.60;99.90;;;;;;5032744;28;20404;-65
2022/06/23 07:35:19;;;;;;;;;;;24.60;99.90;;;;;;5033514;28;20395;-65
2022/06/23 07:37:48;;;;;;;;;;;24.70;99.90;;;;;;5032661;28;19968;-65
2022/06/23 07:40:17;;;;;;;;;;;24.70;99.90;;;;;;5032148;28;19972;-66
2022/06/23 07:42:49;;;;;;;;;;;24.80;99.90;;;;;;5032528;28;19957;-66
2022/06/23 07:45:18;;;;;;;;;;;24.90;99.90;;;;;;5031992;28;20008;-66
2022/06/23 07:47:44;;;;;;;;;;;24.90;99.90;;;;;;5033824;28;19932;-66
2022/06/23 07:50:11;;;;;;;;;;;25.00;99.90;;;;;;5032135;28;19975;-65
2022/06/23 07:52:40;;;;;;;;;;;25.10;99.90;;;;;;5033960;28;20024;-66
2022/06/23 07:55:07;;;;;;;;;;;25.20;99.90;;;;;;5033439;28;19960;-66
2022/06/23 07:57:35;;;;;;;;;;;25.30;99.90;;;;;;5032092;28;19956;-65
2022/06/23 08:00:04;;;;;;;;;;;25.40;99.90;;;;;;5032148;28;19929;-66
2022/06/23 08:02:42;;;;;;;;;;;25.50;99.90;;;;;;5033288;28;19925;-66
2022/06/23 08:05:12;;;;;;;;;;;25.50;99.90;;;;;;5031818;28;20183;-66
2022/06/23 08:07:41;;;;;;;;;;;25.50;99.90;;;;;;5032187;28;20028;-66
2022/06/23 08:10:09;;;;;;;;;;;25.60;99.90;;;;;;5031747;28;19925;-66
2022/06/23 08:12:53;;;;;;;;;;;25.60;99.90;;;;;;5085115;28;19979;-66
2022/06/23 08:18:09;;;;;;;;;;;25.70;99.90;;;;;;5051663;28;20024;-66
2022/06/23 08:20:39;;;;;;;;;;;25.80;99.90;;;;;;5049907;28;19924;-66
2022/06/23 08:23:09;;;;;;;;;;;25.90;99.90;;;;;;5060209;28;20428;-66
2022/06/23 08:25:35;;;;;;;;;;;25.90;99.90;;;;;;5048293;28;19925;-67
2022/06/23 08:28:02;;;;;;;;;;;26.00;99.90;;;;;;5035040;28;19971;-66
2022/06/23 08:30:29;;;;;;;;;;;26.00;99.90;;;;;;5048832;28;19926;-66
2022/06/23 08:32:56;;;;;;;;;;;26.10;99.90;;;;;;5043823;28;19932;-66
2022/06/23 08:35:25;;;;;;;;;;;26.20;99.90;;;;;;5066092;28;20455;-66
2022/06/23 08:37:54;;;;;;;;;;;26.30;99.90;;;;;;5041814;28;19925;-65
2022/06/23 08:40:25;;;;;;;;;;;26.40;99.90;;;;;;5048954;28;20395;-65
2022/06/23 08:42:53;;;;;;;;;;;26.50;99.90;;;;;;5039339;28;20298;-64
2022/06/23 08:45:22;;;;;;;;;;;26.60;99.90;;;;;;5034882;28;19935;-64
2022/06/23 08:47:53;;;;;;;;;;;26.80;99.90;;;;;;5037846;28;19925;-65
2022/06/23 08:50:24;;;;;;;;;;;26.80;99.90;;;;;;5060187;28;19928;-64
2022/06/23 08:52:56;;;;;;;;;;;26.70;99.90;;;;;;5060499;28;19982;-65
2022/06/23 08:55:26;;;;;;;;;;;26.80;99.90;;;;;;5058318;28;19928;-64
2022/06/23 08:57:56;;;;;;;;;;;27.00;99.90;;;;;;5039646;28;19979;-66
2022/06/23 09:00:28;;;;;;;;;;;27.20;99.90;;;;;;5041554;28;19925;-67
2022/06/23 09:02:57;;;;;;;;;;;27.20;99.90;;;;;;5038629;28;19940;-65
2022/06/23 09:05:29;;;;;;;;;;;27.10;99.90;;;;;;5032759;28;20482;-66
2022/06/23 09:08:02;;;;;;;;;;;27.30;99.90;;;;;;5039763;28;19925;-66
2022/06/23 09:10:35;;;;;;;;;;;27.40;99.90;;;;;;5047843;28;19925;-66
2022/06/23 09:13:07;;;;;;;;;;;27.50;99.90;;;;;;5048959;28;19975;-71
2022/06/23 09:15:47;;;;;;;;;;;27.60;99.90;;;;;;5044501;28;19925;-65
2022/06/23 09:18:35;;;;;;;;;;;27.80;99.90;;;;;;5064309;28;19958;-66
2022/06/23 09:21:11;;;;;;;;;;;27.90;99.90;;;;;;5062833;28;19924;-66
2022/06/23 09:23:47;;;;;;;;;;;28.00;99.90;;;;;;5046320;28;20297;-66
2022/06/23 09:26:20;;;;;;;;;;;28.10;99.90;;;;;;5048329;28;19929;-66
2022/06/23 09:28:52;;;;;;;;;;;28.20;99.90;;;;;;5046352;28;20354;-65
2022/06/23 09:31:21;;;;;;;;;;;28.20;99.90;;;;;;5039460;28;19931;-66
2022/06/23 09:33:56;;;;;;;;;;;28.20;99.90;;;;;;5063085;28;19929;-66
2022/06/23 09:36:42;;;;;;;;;;;28.30;99.90;;;;;;5046309;28;20350;-66
2022/06/23 09:39:25;;;;;;;;;;;28.40;99.90;;;;;;5033207;28;19925;-67
2022/06/23 09:42:00;;;;;;;;;;;28.50;99.90;;;;;;5030574;28;19925;-67
2022/06/23 09:44:35;;;;;;;;;;;28.70;99.90;;;;;;5030104;28;19933;-64
2022/06/23 09:47:08;;;;;;;;;;;28.90;99.90;;;;;;5030199;28;20320;-65
2022/06/23 09:49:52;;;;;;;;;;;28.90;99.90;;;;;;5029754;28;19925;-64
2022/06/23 09:52:37;;;;;;;;;;;29.00;99.90;;;;;;5032242;28;19968;-65
2022/06/23 09:55:17;;;;;;;;;;;29.10;99.90;;;;;;5032189;28;19925;-66
2022/06/23 09:57:52;;;;;;;;;;;29.40;99.90;;;;;;5050536;28;19925;-66
2022/06/23 10:00:20;;;;;;;;;;;29.60;99.90;;;;;;5049973;28;19925;-65
2022/06/23 10:02:59;;;;;;;;;;;29.50;99.90;;;;;;5050199;28;19925;-65
2022/06/23 10:05:34;;;;;;;;;;;29.30;99.90;;;;;;5049818;28;19929;-65
2022/06/23 10:08:09;;;;;;;;;;;29.50;99.90;;;;;;5049990;28;19929;-66
2022/06/23 10:10:45;;;;;;;;;;;29.70;99.90;;;;;;5045405;28;19972;-65
2022/06/23 10:13:32;;;;;;;;;;;29.90;99.90;;;;;;5038238;28;19925;-66
2022/06/23 10:16:04;;;;;;;;;;;30.00;99.90;;;;;;5048453;28;19925;-66
2022/06/23 10:18:46;;;;;;;;;;;30.00;99.90;;;;;;5049957;28;19929;-66
2022/06/23 10:21:23;;;;;;;;;;;29.80;99.90;;;;;;5047237;28;20388;-66
2022/06/23 10:23:58;;;;;;;;;;;29.80;99.90;;;;;;5028110;28;20347;-66
2022/06/23 10:26:33;;;;;;;;;;;30.00;99.90;;;;;;5065974;28;19929;-65
2022/06/23 10:29:08;;;;;;;;;;;30.30;99.90;;;;;;5047935;28;19925;-65
2022/06/23 10:31:44;;;;;;;;;;;30.40;99.90;;;;;;5030150;28;20307;-66
2022/06/23 10:34:19;;;;;;;;;;;30.50;99.90;;;;;;5029702;28;19929;-65
2022/06/23 10:36:55;;;;;;;;;;;30.60;99.90;;;;;;5030141;28;19951;-66
2022/06/23 10:39:52;;;;;;;;;;;30.60;99.90;;;;;;5029284;28;19925;-66
2022/06/23 10:42:29;;;;;;;;;;;30.70;99.90;;;;;;5029775;28;19925;-65
2022/06/23 10:45:14;;;;;;;;;;;31.00;99.90;;;;;;5045969;28;19937;-65
2022/06/23 10:47:55;;;;;;;;;;;31.20;99.90;;;;;;5046547;28;19991;-65
2022/06/23 10:50:30;;;;;;;;;;;31.40;99.90;;;;;;5046013;28;19987;-66
2022/06/23 10:53:05;;;;;;;;;;;31.50;99.90;;;;;;5049945;28;19979;-66
2022/06/23 10:55:45;;;;;;;;;;;31.70;99.90;;;;;;5049413;28;19925;-66
2022/06/23 10:58:26;;;;;;;;;;;31.80;99.90;;;;;;5068184;28;19929;-67
2022/06/23 11:00:59;;;;;;;;;;;31.70;99.90;;;;;;5069664;28;19971;-66
2022/06/23 11:03:47;;;;;;;;;;;31.40;99.90;;;;;;5069607;28;20380;-66
2022/06/23 11:06:21;;;;;;;;;;;31.70;99.90;;;;;;5062685;28;19943;-66
2022/06/23 11:09:02;;;;;;;;;;;31.80;99.90;;;;;;5069843;28;19982;-65
2022/06/23 11:11:36;;;;;;;;;;;31.80;99.90;;;;;;5058287;28;19932;-66
2022/06/23 11:14:06;;;;;;;;;;;31.50;99.90;;;;;;5085975;28;19925;-66
2022/06/23 11:16:39;;;;;;;;;;;31.50;99.90;;;;;;5086509;28;19978;-65
2022/06/23 11:19:15;;;;;;;;;;;31.30;99.90;;;;;;5079722;28;20015;-66
2022/06/23 11:21:57;;;;;;;;;;;31.10;99.90;;;;;;5069504;28;19932;-65
2022/06/23 11:24:27;;;;;;;;;;;30.90;99.90;;;;;;5068968;28;20363;-65
2022/06/23 11:27:02;;;;;;;;;;;30.60;99.90;;;;;;5069547;28;19929;-65
2022/06/23 11:29:35;;;;;;;;;;;30.60;99.90;;;;;;5069256;28;20404;-65
2022/06/23 11:32:09;;;;;;;;;;;30.80;99.90;;;;;;5068265;28;19975;-66
2022/06/23 11:34:53;;;;;;;;;;;30.80;99.90;;;;;;5069024;28;19928;-66
2022/06/23 11:37:32;;;;;;;;;;;31.30;99.90;;;;;;5069008;28;19986;-66
2022/06/23 11:40:09;;;;;;;;;;;32.20;99.90;;;;;;5069205;28;19925;-66
2022/06/23 11:42:46;;;;;;;;;;;33.50;99.90;;;;;;5058998;28;19952;-66
2022/06/23 11:45:18;;;;;;;;;;;34.50;99.90;;;;;;5065248;28;19929;-65
2022/06/23 11:47:51;;;;;;;;;;;34.50;99.90;;;;;;5032322;28;19932;-66
2022/06/23 11:50:20;;;;;;;;;;;34.20;99.90;;;;;;5032265;28;19976;-66
2022/06/23 11:52:54;;;;;;;;;;;33.60;99.90;;;;;;5035406;28;20328;-66
2022/06/23 11:55:25;;;;;;;;;;;33.60;99.90;;;;;;5032900;28;19932;-66
2022/06/23 11:58:13;;;;;;;;;;;33.30;99.90;;;;;;5032371;28;19937;-66
2022/06/23 12:00:47;;;;;;;;;;;33.10;99.90;;;;;;5032183;28;19969;-65
2022/06/23 12:03:22;;;;;;;;;;;32.90;99.90;;;;;;5036052;28;19975;-66
2022/06/23 12:05:52;;;;;;;;;;;32.80;99.90;;;;;;5047281;28;19929;-62
2022/06/23 12:08:28;;;;;;;;;;;32.90;99.90;;;;;;5052309;28;19929;-66
2022/06/23 12:10:55;;;;;;;;;;;33.10;99.90;;;;;;5048062;28;19982;-65
2022/06/23 12:13:22;;;;;;;;;;;33.20;99.90;;;;;;5051899;28;19925;-65
2022/06/23 12:15:50;;;;;;;;;;;33.10;99.90;;;;;;5051665;28;19978;-66
2022/06/23 12:18:21;;;;;;;;;;;33.00;99.90;;;;;;5052023;28;19924;-64
2022/06/23 12:20:50;;;;;;;;;;;32.90;99.90;;;;;;5051626;28;20342;-65
2022/06/23 12:23:21;;;;;;;;;;;32.80;99.90;;;;;;5052025;28;19924;-65
2022/06/23 12:25:52;;;;;;;;;;;32.50;99.90;;;;;;5051387;28;19925;-66
2022/06/23 12:28:22;;;;;;;;;;;33.60;99.90;;;;;;5052016;28;20285;-66
2022/06/23 12:30:53;;;;;;;;;;;34.30;99.90;;;;;;5051333;28;19928;-66
2022/06/23 12:33:26;;;;;;;;;;;35.10;99.90;;;;;;5051939;28;19978;-66
2022/06/23 12:35:57;;;;;;;;;;;37.10;99.90;;;;;;5053054;28;19986;-66
2022/06/23 12:38:27;;;;;;;;;;;38.50;99.90;;;;;;5051395;28;19925;-65
2022/06/23 12:40:55;;;;;;;;;;;38.90;99.90;;;;;;5052202;28;19925;-66
2022/06/23 12:43:26;;;;;;;;;;;39.00;99.90;;;;;;5051390;28;19929;-66
2022/06/23 12:46:03;;;;;;;;;;;38.10;99.90;;;;;;5050780;28;19928;-66
2022/06/23 12:48:40;;;;;;;;;;;37.20;99.90;;;;;;5050925;28;19925;-66
2022/06/23 12:51:11;;;;;;;;;;;35.20;99.90;;;;;;5050814;28;19925;-66
2022/06/23 12:53:48;;;;;;;;;;;35.90;99.90;;;;;;5049188;28;19924;-66
2022/06/23 12:56:21;;;;;;;;;;;37.50;99.90;;;;;;5048972;28;19925;-66
2022/06/23 12:58:50;;;;;;;;;;;39.00;99.90;;;;;;5049210;28;19933;-65
2022/06/23 13:01:18;;;;;;;;;;;39.30;99.90;;;;;;5049462;28;19932;-66
2022/06/23 13:03:59;;;;;;;;;;;39.70;99.90;;;;;;5048574;28;20359;-66
2022/06/23 13:06:31;;;;;;;;;;;39.40;99.90;;;;;;5049229;28;19932;-66
2022/06/23 13:09:14;;;;;;;;;;;39.90;99.90;;;;;;5050740;28;20282;-66
2022/06/23 13:11:46;;;;;;;;;;;40.10;99.90;;;;;;5037813;28;19925;-66
2022/06/23 13:14:16;;;;;;;;;;;39.30;99.90;;;;;;5031591;28;19948;-66
2022/06/23 13:16:47;;;;;;;;;;;39.00;99.90;;;;;;5030827;28;20386;-65
2022/06/23 13:19:20;;;;;;;;;;;40.30;99.90;;;;;;5030591;28;19925;-66
2022/06/23 13:21:46;;;;;;;;;;;41.90;99.90;;;;;;5041191;28;19932;-65
2022/06/23 13:24:14;;;;;;;;;;;42.10;99.90;;;;;;5050044;28;19929;-65
2022/06/23 13:26:44;;;;;;;;;;;42.20;99.90;;;;;;5050368;28;19929;-65
2022/06/23 13:29:14;;;;;;;;;;;42.70;99.90;;;;;;5050445;28;20304;-65
2022/06/23 13:31:43;;;;;;;;;;;40.00;99.90;;;;;;5050433;28;20046;-65
2022/06/23 13:34:15;;;;;;;;;;;40.20;99.90;;;;;;5049702;28;19925;-65
2022/06/23 13:36:46;;;;;;;;;;;39.60;99.90;;;;;;5050715;28;19925;-65
2022/06/23 13:39:17;;;;;;;;;;;37.90;99.90;;;;;;5050053;28;19932;-65
2022/06/23 13:41:49;;;;;;;;;;;37.20;99.90;;;;;;5050420;28;19924;-65
2022/06/23 13:44:19;;;;;;;;;;;37.00;99.90;;;;;;5050164;28;19931;-66
2022/06/23 13:46:50;;;;;;;;;;;36.90;99.90;;;;;;5049795;28;19925;-66
2022/06/23 13:49:19;;;;;;;;;;;37.60;99.90;;;;;;5050009;28;19925;-66
2022/06/23 13:51:54;;;;;;;;;;;38.00;99.90;;;;;;5050015;28;20285;-65
2022/06/23 13:54:25;;;;;;;;;;;38.30;99.90;;;;;;5049836;28;19925;-65
2022/06/23 13:56:55;;;;;;;;;;;37.90;99.90;;;;;;5050086;28;19928;-65
2022/06/23 13:59:30;;;;;;;;;;;37.20;99.90;;;;;;5049740;28;20388;-65
2022/06/23 14:02:00;;;;;;;;;;;36.20;99.90;;;;;;5047775;28;19933;-65
2022/06/23 14:04:31;;;;;;;;;;;35.60;99.90;;;;;;5062942;28;19929;-66
2022/06/23 14:07:03;;;;;;;;;;;34.90;99.90;;;;;;5032281;28;19925;-65
2022/06/23 14:09:34;;;;;;;;;;;34.20;99.90;;;;;;5040411;28;19925;-65
2022/06/23 14:12:02;;;;;;;;;;;34.00;99.90;;;;;;5032299;28;19933;-65
2022/06/23 14:14:30;;;;;;;;;;;33.60;99.90;;;;;;5047264;28;19928;-65
2022/06/23 14:17:02;;;;;;;;;;;33.10;99.90;;;;;;5038016;28;19925;-65
2022/06/23 14:19:34;;;;;;;;;;;33.10;99.90;;;;;;5038585;28;19925;-65
2022/06/23 14:22:05;;;;;;;;;;;33.00;99.90;;;;;;5044690;28;19986;-65
2022/06/23 14:24:36;;;;;;;;;;;32.70;99.90;;;;;;5049024;28;19983;-65
2022/06/23 14:27:07;;;;;;;;;;;32.60;99.90;;;;;;5043564;28;19996;-66
2022/06/23 14:29:38;;;;;;;;;;;32.70;99.90;;;;;;5045264;28;19933;-66
2022/06/23 14:32:09;;;;;;;;;;;33.60;99.90;;;;;;5050348;28;19975;-66
2022/06/23 14:34:38;;;;;;;;;;;35.40;99.90;;;;;;5044191;28;19926;-65
2022/06/23 14:37:11;;;;;;;;;;;36.20;99.90;;;;;;5051796;28;19974;-65
2022/06/23 14:39:41;;;;;;;;;;;35.90;99.90;;;;;;5046810;28;19987;-65
2022/06/23 14:42:13;;;;;;;;;;;35.60;99.90;;;;;;5059430;28;19925;-67
2022/06/23 14:44:48;;;;;;;;;;;35.20;99.90;;;;;;5051417;28;19925;-66
2022/06/23 14:47:20;;;;;;;;;;;34.90;99.90;;;;;;5049023;28;19991;-65
2022/06/23 14:49:59;;;;;;;;;;;34.70;99.90;;;;;;5065393;28;19955;-65
2022/06/23 14:52:31;;;;;;;;;;;34.50;99.90;;;;;;5048434;28;20359;-64
2022/06/23 14:55:03;;;;;;;;;;;34.40;99.90;;;;;;5046900;28;19931;-65